Date,TemperatureHighF,TemperatureAvgF,TemperatureLowF,DewpointHighF,DewpointAvgF,DewpointLowF,HumidityHigh,HumidityAvg,HumidityLow,PressureMaxIn,PressureMinIn,WindSpeedMaxMPH,WindSpeedAvgMPH,GustSpeedMaxMPH,PrecipitationSumIn
2013-7-4,78.6,72.5,0.0,72.2,69.6,65.8,99,90,73,30.13,30.05,8,1,11,0.28
2013-7-5,81.2,73.6,68.1,71.6,69.0,67.5,100,86,66,30.13,30.06,4,0,7,0.05
2013-7-6,82.6,71.7,67.3,74.1,69.0,67.1,100,92,66,30.11,30.04,0,0,0,1.34
2013-7-7,72.8,68.6,66.6,69.9,67.6,65.0,100,97,83,30.14,30.05,4,0,7,1.18
2013-7-8,87.4,74.8,66.6,72.2,67.7,63.7,100,81,51,30.18,30.06,0,0,2,0.00
2013-7-9,91.6,78.9,69.3,74.7,70.5,65.3,98,77,50,30.12,30.00,0,0,0,0.00
2013-7-10,90.7,77.8,72.3,76.0,71.8,68.2,94,83,58,30.04,29.94,0,0,0,0.00
2013-7-11,85.8,75.5,69.8,73.6,69.5,65.4,98,83,61,29.94,29.84,0,0,0,0.27
2013-7-12,83.2,74.1,68.1,68.9,64.7,58.8,93,74,48,29.94,29.86,0,0,0,0.00
2013-7-13,85.9,75.4,66.8,69.8,64.2,60.7,85,69,48,30.02,29.90,0,0,0,0.00
2013-7-14,86.3,77.1,69.9,72.6,66.9,62.8,84,71,57,30.16,30.01,0,0,0,0.06
2013-7-15,89.0,79.7,70.6,70.0,65.7,63.1,82,64,45,30.25,30.16,0,0,0,0.00
2013-7-16,90.5,81.1,70.3,71.1,67.7,65.2,87,65,45,30.28,30.19,0,0,0,0.00
2013-7-17,92.9,80.7,71.5,74.5,69.5,63.5,95,71,40,30.24,30.11,1,0,4,0.06
2013-7-18,89.9,78.1,68.9,73.1,70.4,68.3,99,79,54,30.18,30.00,6,0,7,0.02
2013-7-19,91.4,80.6,71.1,75.4,70.8,68.4,96,74,50,30.07,29.91,4,0,8,0.00
2013-7-20,92.3,80.1,72.3,74.7,70.7,66.9,95,75,47,29.98,29.86,9,0,10,0.36
2013-7-21,86.7,74.5,70.3,74.3,70.8,68.1,99,89,62,29.98,29.88,2,0,10,0.13
2013-7-22,81.6,73.4,70.6,74.9,70.6,68.7,98,91,70,29.94,29.79,7,0,10,0.13
2013-7-23,85.1,74.9,67.9,73.7,70.0,66.0,99,86,62,29.88,29.76,6,0,16,0.27
2013-7-24,85.5,76.5,70.4,73.4,69.9,64.1,100,82,53,29.85,29.75,4,0,11,0.00
2013-7-25,84.7,73.8,65.5,66.9,62.9,58.6,95,71,46,30.00,29.84,7,0,10,0.00
2013-7-26,88.6,74.1,62.6,69.6,63.9,58.3,90,72,49,30.04,29.94,7,0,14,0.00
2013-7-27,80.5,73.6,67.9,72.3,67.7,62.3,96,83,61,29.95,29.83,4,0,7,0.35
2013-7-28,84.0,74.9,66.6,68.4,62.8,54.6,96,69,39,30.02,29.86,4,0,9,0.00
2013-7-29,81.8,70.2,58.3,59.3,54.8,44.5,87,61,27,30.16,30.02,7,0,9,0.00
2013-7-30,78.3,70.4,60.7,65.7,60.5,55.2,88,72,56,30.20,30.11,6,0,10,0.00
2013-7-31,77.7,70.7,64.7,69.0,65.3,59.2,97,83,68,30.11,29.93,7,0,10,0.03